Montandon, PA (17850)

11:14 PM EST del 17 Gennaio 2017 (GMT -0500)
NE corner of vineyard | | Change Station
Avvisi attivi: Dense Fog Advisory

Alt. 0 ft 41.00 °N, 76.89 °W | Updated 5 seconds ago

Coperto
Coperto
34.5 °F
Sembra 34 °F
N
0.0
Vento Variabile Vento da Nord
Gusts 1.0 mph

Oggi
Massima -- | Minima -- °F
--% Possibilità di precip.
Ieri
Massima -- | Minima -- °F
Precip. -- in
Pressione 29.93 in
Visibilità 1.0 miglia
Nuvole Coperto 600 ft
Raffreddamento del vento 34 °F
Punto di rugiada 35 °F
Umidità 99%
Piovosità 0.15 in
Spessore del manto nevoso Non disponibile.
7:28 AM 5:06 PM
Gobba a levante, 67% visible
SPECI KSEG 180405Z AUTO 00000KT 1SM BR OVC006 02/02 A2993 RMK AO2 T00220022
Pressione 29.93 in
Visibilità 1.0 miglia
Nuvole Coperto 600 ft
Raffreddamento del vento 34 °F
Punto di rugiada 35 °F
Umidità 99%
Piovosità 0.15 in
Spessore del manto nevoso Non disponibile.
7:28 AM 5:06 PM
Gobba a levante, 67% visible
SPECI KSEG 180405Z AUTO 00000KT 1SM BR OVC006 02/02 A2993 RMK AO2 T00220022

Get Your Daily Forecast Email!

Thanks for signing up!

Be on the lookout for a verification email in your inbox.

You'll start receiving the daily forecast at 8 AM.

×

10-Day Weather Forecast

Almanac

Astronomia

Jan. 17, 2017 Alba Tramonto
Ora attuale
Crepuscolo civile
Crepuscolo nautico
Crepuscolo astronomico
Luna
Estensione della luce visibile
Lunghezza del giorno
Tomorrow will be .
, % of the Moon is Illuminated

Gli estremi di oggi

State Highs State Lows

Community

WunderPhotos

Upload Photos

1,962,540 foto caricate!

WunderBlog® & News

Nearby

Qualità dell'aria

  Qualità dell'aria Indice AQ Inquinante
Not available.

Profondità neve

Stazione Profondità Altitudine

Attività sismica

Città  Distanza Mag. Data & Ora
Minimo Magnitudo Mostrato è 2.5.

Temperature delle acque costiere

Località Temperatura

Stations

Stazioni meteo nelle vicinanze

Ubicazione della stazione Temp. Raffreddamento del vento Punto di rugiada Umidità Vento Precip. Alt. Aggiornato Tipo
                   

Watches & Warnings

Dense Fog Advisory
Issued: 20:08 EST Jan. 17, 2017 – National Weather Service

... Dense fog advisory in effect until 6 am EST Wednesday...

The National Weather Service in State College has issued a dense
fog advisory... which is in effect until 6 am EST Wednesday.

* Timing... this evening through early Wednesday morning.

* Impacts... greatly reduced visibilities could cause travel
problems.

Precautionary/preparedness actions...

Motorists are advised to slow down... use low beam headlights and
keep a safe following distance from the vehicle in front of you.
Consider allowing extra time to reach your destination. Go to
weather.Gov/fog for more information on fog safety.